createdAt,value
2023-03-08T00:02:01.189Z,7.91
2023-03-08T00:04:46.980Z,7.86
2023-03-08T00:07:32.754Z,7.85
2023-03-08T00:10:18.712Z,7.79
2023-03-08T00:13:04.586Z,7.77
2023-03-08T00:15:51.168Z,7.70
2023-03-08T00:18:37.543Z,7.63
2023-03-08T00:21:23.503Z,7.54
2023-03-08T00:24:09.220Z,7.50
2023-03-08T00:26:54.915Z,7.44
2023-03-08T00:29:40.647Z,7.40
2023-03-08T00:32:27.231Z,7.30
2023-03-08T00:35:13.226Z,7.20
2023-03-08T00:37:59.016Z,7.16
2023-03-08T00:40:44.754Z,7.07
2023-03-08T00:43:31.445Z,6.94
2023-03-08T00:46:18.920Z,6.87
2023-03-08T00:49:05.244Z,6.78
2023-03-08T00:51:51.297Z,6.70
2023-03-08T00:54:37.560Z,6.66
2023-03-08T00:57:24.854Z,6.58
2023-03-08T01:00:12.941Z,6.57
2023-03-08T01:02:59.291Z,6.54
2023-03-08T01:05:49.630Z,6.48
2023-03-08T01:08:36.427Z,6.42
2023-03-08T01:11:27.896Z,6.40
2023-03-08T01:14:14.691Z,6.35
2023-03-08T01:17:00.678Z,6.32
2023-03-08T01:19:46.822Z,6.26
2023-03-08T01:22:33.038Z,6.20
2023-03-08T01:25:20.381Z,6.17
2023-03-08T01:28:07.425Z,6.10
2023-03-08T01:30:53.901Z,5.99
2023-03-08T01:33:40.501Z,5.86
2023-03-08T01:36:28.257Z,5.81
2023-03-08T01:39:15.912Z,5.77
2023-03-08T01:42:07.448Z,5.75
2023-03-08T01:45:06.174Z,5.74
2023-03-08T01:47:53.412Z,5.69
2023-03-08T01:50:46.616Z,5.75
2023-03-08T01:53:34.960Z,5.71
2023-03-08T01:56:22.621Z,5.70
2023-03-08T01:59:09.467Z,5.69
2023-03-08T02:01:55.833Z,5.70
2023-03-08T02:04:42.744Z,5.63
2023-03-08T02:07:32.317Z,5.50
2023-03-08T02:10:21.459Z,5.44
2023-03-08T02:13:08.009Z,5.46
2023-03-08T02:15:58.822Z,5.45
2023-03-08T02:19:00.849Z,5.43
2023-03-08T02:21:46.767Z,5.45
2023-03-08T02:24:33.549Z,5.43
2023-03-08T02:27:25.890Z,5.41
2023-03-08T02:30:16.202Z,5.40
2023-03-08T02:33:02.297Z,5.35
2023-03-08T02:35:48.740Z,5.27
2023-03-08T02:38:35.838Z,5.19
2023-03-08T02:41:21.966Z,5.12
2023-03-08T02:44:07.689Z,5.08
2023-03-08T02:46:55.255Z,5.04
2023-03-08T02:49:42.283Z,4.96
2023-03-08T02:52:31.627Z,4.91
2023-03-08T02:55:19.587Z,4.74
2023-03-08T02:58:07.398Z,4.72
2023-03-08T03:00:53.707Z,4.70
2023-03-08T03:03:40.913Z,4.64
2023-03-08T03:06:27.459Z,4.68
2023-03-08T03:09:16.556Z,4.74
2023-03-08T03:12:06.537Z,4.75
2023-03-08T03:14:56.642Z,4.71
2023-03-08T03:17:43.515Z,4.78
2023-03-08T03:20:30.471Z,4.73
2023-03-08T03:23:17.182Z,4.76
2023-03-08T03:26:12.541Z,4.78
2023-03-08T03:28:59.456Z,4.76
2023-03-08T03:31:52.088Z,4.72
2023-03-08T03:34:40.274Z,4.68
2023-03-08T03:37:26.550Z,4.65
2023-03-08T03:40:14.490Z,4.64
2023-03-08T03:43:03.395Z,4.67
2023-03-08T03:45:59.361Z,4.69
2023-03-08T03:48:48.725Z,4.69
2023-03-08T03:51:37.804Z,4.69
2023-03-08T03:54:49.467Z,4.69
2023-03-08T03:57:35.435Z,4.68
2023-03-08T04:00:22.658Z,4.71
2023-03-08T04:03:23.918Z,4.73
2023-03-08T04:06:24.259Z,4.70
2023-03-08T04:09:15.333Z,4.64
2023-03-08T04:12:05.780Z,4.65
2023-03-08T04:14:57.252Z,4.68
2023-03-08T04:17:50.796Z,4.64
2023-03-08T04:20:41.395Z,4.65
2023-03-08T04:23:33.344Z,4.63
2023-03-08T04:26:23.537Z,4.60
2023-03-08T04:29:09.600Z,4.62
2023-03-08T04:32:00.475Z,4.61
2023-03-08T04:34:57.117Z,4.59
2023-03-08T04:37:49.740Z,4.58
2023-03-08T04:41:05.561Z,4.57
2023-03-08T04:44:05.517Z,4.48
2023-03-08T04:46:57.438Z,4.48
2023-03-08T04:49:54.751Z,4.44
2023-03-08T04:52:41.340Z,4.37
2023-03-08T04:55:26.977Z,4.33
2023-03-08T04:58:23.906Z,4.28
2023-03-08T05:01:21.035Z,4.21
2023-03-08T05:04:07.096Z,4.35
2023-03-08T05:06:57.716Z,4.36
2023-03-08T05:09:46.875Z,4.36
2023-03-08T05:12:33.052Z,4.42
2023-03-08T05:15:20.225Z,4.43
2023-03-08T05:18:06.198Z,4.44
2023-03-08T05:21:08.373Z,4.45
2023-03-08T05:23:55.200Z,4.42
2023-03-08T05:26:43.556Z,4.51
2023-03-08T05:29:34.998Z,4.50
2023-03-08T05:32:44.105Z,4.51
2023-03-08T05:35:31.221Z,4.54
2023-03-08T05:39:27.435Z,4.56
2023-03-08T05:42:20.513Z,4.56
2023-03-08T05:45:07.568Z,4.56
2023-03-08T05:47:56.687Z,4.56
2023-03-08T05:50:43.473Z,4.57
2023-03-08T05:53:29.719Z,4.66
2023-03-08T05:56:18.147Z,4.71
2023-03-08T05:59:12.343Z,4.79
2023-03-08T06:01:58.446Z,4.84
2023-03-08T06:04:52.925Z,4.89
2023-03-08T06:07:43.768Z,4.97
2023-03-08T06:10:32.054Z,4.98
2023-03-08T06:13:22.011Z,5.05
2023-03-08T06:16:08.357Z,5.09
2023-03-08T06:18:54.486Z,5.15
2023-03-08T06:21:40.642Z,5.18
2023-03-08T06:24:26.554Z,5.12
2023-03-08T06:27:13.449Z,5.03
2023-03-08T06:30:01.712Z,4.96
2023-03-08T06:32:49.893Z,4.87
2023-03-08T06:35:35.994Z,4.98
2023-03-08T06:38:24.650Z,5.03
2023-03-08T06:41:11.366Z,5.20
2023-03-08T06:43:57.362Z,5.28
2023-03-08T06:46:43.813Z,5.45
2023-03-08T06:49:29.698Z,5.53
2023-03-08T06:52:15.489Z,5.62
2023-03-08T06:55:01.769Z,5.65
2023-03-08T06:57:47.594Z,5.68
2023-03-08T07:00:34.292Z,5.81
2023-03-08T07:03:20.549Z,5.88
2023-03-08T07:06:09.000Z,5.94
2023-03-08T07:08:54.965Z,5.97
2023-03-08T07:11:41.117Z,6.06
2023-03-08T07:14:26.738Z,6.12
2023-03-08T07:17:12.489Z,6.26
2023-03-08T07:19:58.148Z,6.38
2023-03-08T07:22:44.990Z,6.50
2023-03-08T07:25:30.951Z,6.61
2023-03-08T07:28:16.925Z,6.73
2023-03-08T07:31:02.884Z,6.79
2023-03-08T07:33:48.874Z,6.97
2023-03-08T07:36:34.483Z,7.07
2023-03-08T07:39:20.145Z,7.17
2023-03-08T07:42:05.928Z,7.28
2023-03-08T07:44:51.780Z,7.41
2023-03-08T07:47:37.706Z,7.39
2023-03-08T07:50:23.739Z,7.54
2023-03-08T07:53:09.524Z,7.65
2023-03-08T07:55:57.771Z,7.67
2023-03-08T07:58:43.510Z,7.77
2023-03-08T08:01:29.538Z,7.86
2023-03-08T08:04:15.383Z,7.95
2023-03-08T08:07:01.405Z,8.04
2023-03-08T08:09:48.025Z,8.13
2023-03-08T08:12:34.224Z,8.19
2023-03-08T08:15:21.019Z,8.29
2023-03-08T08:18:07.047Z,8.39
2023-03-08T08:21:15.603Z,8.53
2023-03-08T08:24:02.176Z,8.62
2023-03-08T08:26:47.994Z,8.77
2023-03-08T08:29:33.862Z,8.93
2023-03-08T08:32:22.745Z,9.04
2023-03-08T08:35:08.712Z,9.14
2023-03-08T08:37:54.735Z,9.21
2023-03-08T08:40:40.317Z,9.22
2023-03-08T08:43:26.050Z,9.19
2023-03-08T08:46:13.300Z,9.21
2023-03-08T08:48:59.165Z,9.19
2023-03-08T08:51:47.259Z,9.25
2023-03-08T08:54:34.302Z,9.32
2023-03-08T08:57:20.284Z,9.46
2023-03-08T09:00:10.098Z,9.54
2023-03-08T09:02:56.028Z,9.75
2023-03-08T09:05:44.343Z,9.85
2023-03-08T09:08:30.189Z,9.97
2023-03-08T09:11:16.095Z,10.07
2023-03-08T09:14:02.580Z,10.17
2023-03-08T09:16:48.442Z,10.23
2023-03-08T09:19:36.448Z,10.30
2023-03-08T09:22:22.237Z,10.38
2023-03-08T09:25:10.317Z,10.50
2023-03-08T09:27:56.323Z,10.59
2023-03-08T09:30:42.071Z,10.65
2023-03-08T09:33:27.706Z,10.74
2023-03-08T09:36:14.808Z,10.84
2023-03-08T09:39:00.831Z,10.85
2023-03-08T09:41:48.934Z,10.86
2023-03-08T09:44:59.331Z,10.85
2023-03-08T09:48:12.833Z,10.90
2023-03-08T09:51:04.008Z,10.98
2023-03-08T09:53:54.861Z,11.06
2023-03-08T09:56:49.170Z,11.20
2023-03-08T09:59:58.818Z,11.37
2023-03-08T10:03:09.438Z,11.59
2023-03-08T10:06:20.584Z,11.79
2023-03-08T10:09:33.116Z,12.09
2023-03-08T10:12:51.239Z,12.48
2023-03-08T10:15:42.427Z,12.82
2023-03-08T10:18:57.020Z,13.02
2023-03-08T10:21:44.514Z,13.09
2023-03-08T10:24:37.129Z,13.08
2023-03-08T10:27:26.411Z,13.15
2023-03-08T10:30:15.916Z,13.19
2023-03-08T10:33:07.337Z,13.26
2023-03-08T10:36:06.246Z,13.36
2023-03-08T10:39:08.386Z,13.43
2023-03-08T10:41:56.799Z,13.46
2023-03-08T10:44:52.480Z,13.51
2023-03-08T10:47:39.689Z,13.58
2023-03-08T10:50:29.049Z,13.64
2023-03-08T10:53:19.846Z,13.66
2023-03-08T10:56:47.538Z,13.74
2023-03-08T10:59:35.234Z,13.88
2023-03-08T11:02:22.981Z,14.02
2023-03-08T11:05:29.451Z,14.16
2023-03-08T11:08:24.285Z,14.35
2023-03-08T11:11:14.229Z,14.53
2023-03-08T11:14:01.607Z,14.71
2023-03-08T11:17:08.286Z,14.82
2023-03-08T11:20:00.730Z,14.91
2023-03-08T11:22:52.736Z,15.05
2023-03-08T11:25:56.489Z,15.34
2023-03-08T11:28:56.509Z,15.77
2023-03-08T11:31:50.148Z,16.17
2023-03-08T11:34:47.119Z,16.43
2023-03-08T11:37:50.862Z,16.82
2023-03-08T11:40:59.316Z,17.17
2023-03-08T11:44:07.097Z,17.60
2023-03-08T11:47:05.037Z,17.93
2023-03-08T11:49:54.081Z,18.05
2023-03-08T11:52:51.723Z,17.97
2023-03-08T11:56:10.461Z,17.80
2023-03-08T11:59:02.587Z,17.55
2023-03-08T12:02:10.410Z,17.24
2023-03-08T12:05:23.071Z,16.97
2023-03-08T12:08:08.819Z,16.76
2023-03-08T12:11:05.613Z,16.48
2023-03-08T12:13:55.745Z,16.31
2023-03-08T12:16:50.270Z,16.11
2023-03-08T12:19:42.117Z,15.89
2023-03-08T12:22:42.142Z,15.69
2023-03-08T12:25:31.302Z,15.53
2023-03-08T12:28:25.317Z,15.36
2023-03-08T12:31:26.605Z,15.21
2023-03-08T12:34:28.468Z,15.06
2023-03-08T12:37:32.993Z,14.94
2023-03-08T12:40:58.657Z,14.80
2023-03-08T12:44:36.065Z,14.64
2023-03-08T12:47:23.342Z,14.47
2023-03-08T12:50:15.030Z,14.35
2023-03-08T12:53:02.336Z,14.26
2023-03-08T12:56:04.594Z,14.12
2023-03-08T12:58:54.847Z,14.05
2023-03-08T13:02:26.984Z,13.97
2023-03-08T13:05:31.387Z,13.94
2023-03-08T13:08:27.336Z,13.90
2023-03-08T13:11:18.156Z,13.90
2023-03-08T13:14:25.088Z,13.88
2023-03-08T13:17:29.740Z,13.87
2023-03-08T13:20:25.687Z,13.85
2023-03-08T13:23:14.586Z,13.82
2023-03-08T13:26:03.405Z,13.78
2023-03-08T13:28:49.557Z,13.76
2023-03-08T13:31:37.351Z,13.93
2023-03-08T13:34:32.092Z,14.32
2023-03-08T13:37:26.264Z,14.62
2023-03-08T13:40:18.101Z,14.80
2023-03-08T13:43:08.569Z,15.04
2023-03-08T13:45:57.458Z,15.25
2023-03-08T13:48:44.611Z,15.39
2023-03-08T13:51:30.901Z,15.36
2023-03-08T13:54:29.867Z,15.25
2023-03-08T13:57:22.480Z,15.11
2023-03-08T14:00:27.216Z,15.03
2023-03-08T14:03:20.345Z,14.92
2023-03-08T14:06:19.055Z,14.86
2023-03-08T14:09:05.636Z,14.80
2023-03-08T14:12:05.293Z,14.92
2023-03-08T14:14:57.438Z,15.28
2023-03-08T14:17:43.005Z,15.87
2023-03-08T14:20:28.839Z,16.66
2023-03-08T14:23:23.661Z,17.31
2023-03-08T14:26:36.508Z,17.32
2023-03-08T14:29:30.214Z,17.30
2023-03-08T14:32:16.266Z,17.65
2023-03-08T14:35:30.138Z,18.00
2023-03-08T14:38:25.223Z,17.96
2023-03-08T14:41:15.485Z,17.76
2023-03-08T14:44:02.998Z,17.46
2023-03-08T14:46:49.058Z,16.99
2023-03-08T14:49:35.254Z,16.62
2023-03-08T14:52:21.595Z,16.25
2023-03-08T14:55:24.738Z,15.91
2023-03-08T14:58:14.100Z,15.56
2023-03-08T15:01:02.562Z,15.33
2023-03-08T15:03:48.853Z,15.05
2023-03-08T15:06:36.415Z,14.82
2023-03-08T15:09:23.044Z,14.68
2023-03-08T15:12:12.594Z,14.47
2023-03-08T15:14:58.330Z,14.29
2023-03-08T15:17:45.770Z,14.07
2023-03-08T15:20:31.762Z,13.90
2023-03-08T15:23:27.526Z,13.84
2023-03-08T15:26:24.906Z,13.72
2023-03-08T15:29:29.213Z,13.59
2023-03-08T15:32:15.221Z,13.46
2023-03-08T15:35:00.924Z,13.36
2023-03-08T15:37:47.132Z,13.26
2023-03-08T15:40:34.758Z,13.13
2023-03-08T15:43:20.579Z,13.09
2023-03-08T15:46:06.617Z,13.05
2023-03-08T15:48:52.924Z,13.01
2023-03-08T15:51:39.052Z,13.03
2023-03-08T15:54:25.274Z,13.03
2023-03-08T15:57:11.060Z,12.98
2023-03-08T15:59:56.908Z,12.96
2023-03-08T16:02:43.297Z,12.94
2023-03-08T16:05:31.133Z,12.89
2023-03-08T16:08:16.793Z,12.86
2023-03-08T16:11:06.455Z,12.83
2023-03-08T16:13:53.104Z,12.75
2023-03-08T16:16:45.614Z,12.64
2023-03-08T16:19:33.207Z,12.56
2023-03-08T16:22:19.646Z,12.55
2023-03-08T16:25:06.720Z,12.46
2023-03-08T16:27:53.377Z,12.43
2023-03-08T16:30:43.078Z,12.36
2023-03-08T16:33:29.418Z,12.26
2023-03-08T16:36:19.610Z,12.16
2023-03-08T16:39:06.717Z,12.10
2023-03-08T16:41:52.630Z,12.10
2023-03-08T16:44:39.153Z,12.07
2023-03-08T16:47:26.705Z,11.98
2023-03-08T16:50:13.831Z,11.96
2023-03-08T16:52:59.861Z,11.90
2023-03-08T16:55:46.446Z,11.85
2023-03-08T16:58:32.488Z,11.82
2023-03-08T17:01:19.667Z,11.79
2023-03-08T17:04:05.526Z,11.78
2023-03-08T17:06:51.538Z,11.76
2023-03-08T17:09:38.292Z,11.70
2023-03-08T17:12:24.422Z,11.67
2023-03-08T17:15:10.996Z,11.66
2023-03-08T17:17:57.235Z,11.63
2023-03-08T17:20:43.476Z,11.53
2023-03-08T17:23:29.120Z,11.58
2023-03-08T17:26:16.022Z,11.57
2023-03-08T17:29:18.204Z,11.53
2023-03-08T17:32:06.127Z,11.52
2023-03-08T17:34:52.141Z,11.55
2023-03-08T17:37:41.954Z,11.49
2023-03-08T17:40:29.480Z,11.48
2023-03-08T17:43:20.095Z,11.47
2023-03-08T17:46:17.515Z,11.43
2023-03-08T17:49:03.500Z,11.38
2023-03-08T17:51:50.074Z,11.34
2023-03-08T17:59:21.940Z,11.22
2023-03-08T18:02:10.331Z,11.23
2023-03-08T18:09:41.924Z,11.16
2023-03-08T18:12:28.780Z,11.18
2023-03-08T18:20:00.598Z,11.11
2023-03-08T18:22:47.560Z,11.09
2023-03-08T18:26:52.373Z,11.11
2023-03-08T18:29:38.449Z,11.08
2023-03-08T18:32:24.567Z,11.08
2023-03-08T18:39:38.820Z,11.06
2023-03-08T18:42:25.550Z,11.11
2023-03-08T18:52:11.019Z,11.06
2023-03-08T18:56:40.138Z,11.05
2023-03-08T19:01:11.384Z,11.02
2023-03-08T19:05:41.136Z,10.99
2023-03-08T19:09:33.312Z,10.96
2023-03-08T19:12:19.617Z,10.91
2023-03-08T19:15:09.641Z,10.87
2023-03-08T19:17:56.635Z,10.86
2023-03-08T19:20:43.406Z,10.81
2023-03-08T19:23:29.539Z,10.80
2023-03-08T19:26:36.783Z,10.75
2023-03-08T19:29:22.730Z,10.75
2023-03-08T19:32:08.966Z,10.71
2023-03-08T19:34:55.229Z,10.66
2023-03-08T19:37:42.822Z,10.60
2023-03-08T19:40:28.888Z,10.61
2023-03-08T19:43:14.767Z,10.57
2023-03-08T19:46:06.067Z,10.51
2023-03-08T19:48:51.891Z,10.50
2023-03-08T19:51:38.349Z,10.43
2023-03-08T19:54:25.913Z,10.35
2023-03-08T19:57:12.000Z,10.37
2023-03-08T19:59:59.623Z,10.31
2023-03-08T20:02:46.032Z,10.29
2023-03-08T20:05:37.729Z,10.21
2023-03-08T20:08:24.700Z,10.24
2023-03-08T20:11:11.621Z,10.19
2023-03-08T20:13:58.329Z,10.14
2023-03-08T20:16:44.902Z,10.11
2023-03-08T20:19:34.088Z,10.05
2023-03-08T20:22:20.260Z,10.04
2023-03-08T20:25:06.882Z,10.01
2023-03-08T20:27:53.116Z,9.96
2023-03-08T20:30:42.116Z,9.91
2023-03-08T20:33:28.579Z,9.88
2023-03-08T20:36:15.893Z,9.82
2023-03-08T20:39:02.642Z,9.79
2023-03-08T20:41:49.688Z,9.75
2023-03-08T20:44:36.283Z,9.70
2023-03-08T20:47:23.077Z,9.66
2023-03-08T20:50:10.431Z,9.62
2023-03-08T20:52:57.383Z,9.63
2023-03-08T20:55:43.843Z,9.59
2023-03-08T20:58:30.455Z,9.56
2023-03-08T21:01:20.513Z,9.56
2023-03-08T21:04:07.258Z,9.54
2023-03-08T21:06:53.757Z,9.48
2023-03-08T21:09:40.040Z,9.43
2023-03-08T21:12:27.388Z,9.40
2023-03-08T21:15:13.462Z,9.29
2023-03-08T21:18:01.043Z,9.36
2023-03-08T21:20:48.835Z,9.37
2023-03-08T21:23:34.823Z,9.28
2023-03-08T21:26:23.794Z,9.33
2023-03-08T21:29:12.988Z,9.32
2023-03-08T21:31:59.545Z,9.30
2023-03-08T21:34:45.628Z,9.23
2023-03-08T21:37:31.581Z,9.26
2023-03-08T21:40:17.648Z,9.27
2023-03-08T21:43:03.674Z,9.29
2023-03-08T21:45:49.568Z,9.31
2023-03-08T21:48:35.498Z,9.35
2023-03-08T21:51:21.529Z,9.38
2023-03-08T21:54:07.655Z,9.40
2023-03-08T21:56:53.998Z,9.37
2023-03-08T21:59:39.996Z,9.47
2023-03-08T22:02:26.063Z,9.54
2023-03-08T22:05:13.618Z,9.50
2023-03-08T22:07:59.497Z,9.58
2023-03-08T22:10:45.188Z,9.63
2023-03-08T22:13:31.097Z,9.62
2023-03-08T22:16:16.985Z,9.68
2023-03-08T22:19:04.184Z,9.73
2023-03-08T22:21:50.324Z,9.77
2023-03-08T22:24:41.628Z,9.77
2023-03-08T22:27:28.282Z,9.83
2023-03-08T22:30:15.365Z,9.86
2023-03-08T22:33:01.361Z,9.95
2023-03-08T22:35:48.854Z,9.96
2023-03-08T22:38:35.930Z,10.00
2023-03-08T22:41:25.156Z,10.06
2023-03-08T22:44:15.200Z,10.05
2023-03-08T22:47:01.159Z,10.08
2023-03-08T22:50:01.240Z,10.10
2023-03-08T22:52:47.399Z,10.08
2023-03-08T22:55:33.749Z,10.10
2023-03-08T22:58:19.912Z,10.14
2023-03-08T23:01:13.295Z,10.17
2023-03-08T23:03:59.787Z,10.21
2023-03-08T23:06:45.997Z,10.20
2023-03-08T23:09:32.121Z,10.26
2023-03-08T23:12:18.253Z,10.31
2023-03-08T23:15:04.733Z,10.34
2023-03-08T23:17:51.268Z,10.37
2023-03-08T23:20:39.152Z,10.37
2023-03-08T23:23:25.228Z,10.38
2023-03-08T23:26:18.034Z,10.42
2023-03-08T23:29:05.160Z,10.39
2023-03-08T23:31:51.348Z,10.44
2023-03-08T23:34:36.963Z,10.40
2023-03-08T23:37:22.747Z,10.49
2023-03-08T23:40:11.626Z,10.51
2023-03-08T23:42:57.557Z,10.50
2023-03-08T23:45:43.383Z,10.48
2023-03-08T23:48:29.284Z,10.50
2023-03-08T23:51:18.113Z,10.49
2023-03-08T23:54:03.922Z,10.49
2023-03-08T23:56:49.984Z,10.52
2023-03-08T23:59:35.630Z,10.52
